Automated Weather Station

Lita, Tayabas, Quezon


Readings

as of August 06, 2016 01:00 AM
Wind Speed
1.4 mm
Rainfall Amount
0 mm
Rainfall Intensity
0 mm
Air Temperature
mm
Wind Direction
293 mm
Air Humidity
88.4 mm

Data Source: PREDICT (Advanced Science and Technology Institute)

12 HOUR DATA

PREVIOUS DATA

From
To
DateTime Wind Speed Rain Amount Rain Intensity Air Temperature Air Pressure Wind Direction Air Humidity
October 30, 2013 07:00 PM 3.2 0 mm 0 25.7 992.28 345 68.4
October 30, 2013 06:00 PM 3.8 0 mm 0 25.8 991.62 353 68.6
October 30, 2013 05:00 PM 0 0 mm 0 0 0 0 0
October 30, 2013 04:00 PM 4.2 0 mm 0 27.5 991.09 359 64.7
October 30, 2013 03:00 PM 5.2 0 mm 0 27.6 990.42 2 64
October 30, 2013 02:45 PM 6.9 0 mm 0 27.8 990.42 351 63.1
October 30, 2013 02:30 PM 6.1 0 mm 0 27.6 990.29 354 62.6
October 30, 2013 02:15 PM 6.6 0 mm 0 27.9 990.42 356 62.6
October 30, 2013 02:00 PM 5.8 0 mm 0 27.9 990.55 357 63.4
October 30, 2013 01:45 PM 5.5 0 mm 0 27.5 990.82 356 64.2
October 30, 2013 01:30 PM 8.8 0 mm 0 28 990.95 8 62.4
October 30, 2013 01:15 PM 9.5 0 mm 0 28.4 990.95 7 60.9
October 30, 2013 01:00 PM 9.1 0 mm 0 28.3 991.09 16 61.1
October 30, 2013 12:45 PM 7.4 0 mm 0 28.1 991.22 13 62.7
October 30, 2013 12:30 PM 8 0 mm 0 27.6 991.62 6 63.9
October 30, 2013 12:15 PM 6.1 0 mm 0 27.9 991.88 347 62.6
October 30, 2013 12:00 PM 6 0 mm 0 27.7 992.02 341 66.5
October 30, 2013 11:45 AM 9.1 0 mm 0 26.6 992.42 4 68.2
October 30, 2013 11:30 AM 6 0 mm 0 26.3 992.68 10 73.9
October 30, 2013 11:00 AM 6 0 mm 0 27.9 992.82 19 62
October 30, 2013 10:45 AM 5.2 0 mm 0 27.5 993.09 358 63.7
October 30, 2013 10:30 AM 5.2 0 mm 0 26.7 993.49 10 67.3
October 30, 2013 10:00 AM 5.4 0 mm 0 27.2 993.62 31 65.3
October 30, 2013 09:45 AM 4.7 0 mm 0 27.7 993.62 38 62.5
October 30, 2013 09:30 AM 4.7 0 mm 0 27.8 993.75 20 62.4
October 30, 2013 09:15 AM 3.9 0 mm 0 27.8 994.02 352 61.6
October 30, 2013 09:00 AM 4.7 0 mm 0 26.6 994.02 358 65.4
October 30, 2013 08:30 AM 5 0 mm 0 27.1 994.28 343 63
October 30, 2013 08:15 AM 4.6 0 mm 0 26.9 994.42 350 63.2
October 30, 2013 08:00 AM 5 0 mm 0 26.6 994.15 346 66.5